Pemaquid Point Lighthouse, ME

43° 50' 13"N, 69° 30' 22"W, Elevation 40 ft.
Eastern Time

Hourly observations for the last 72 hours

Date Time Temperature (°F) Humi-
dity

(%)
Wind
(mph)
Pressure Rain (in) Sun
(W/m2)
UV ET
(in)
Air Dew 6 Hour 1 Hr 3 Hr 6 Hr Day
Alt
(in)
Sea
Level

(mb)
Max Min
13 19:00 54.4 44.1 68 W 10 G 16 30.03 1016.9 0.00 65 0.0 0.129
13 18:00 55.8 45.0 67 WSW 10 G 18 30.02 1016.7 0.00 359 0.0 0.119
13 17:00 57.4 45.7 65 WSW 10 G 18 30.02 1016.8 0.00 608 0.0 0.104
13 16:00 56.0 45.2 67 WSW 8 G 16 30.03 1017.1 0.00 199 0.0 0.092
13 15:00 56.9 47.2 70 SW 13 G 16 30.06 1017.8 0.00 1086 0.0 0.077
13 14:00 55.6 47.1 57.5 51.8 73 SW 4 G 14 30.07 1018.5 0.00 1058 0.8 0.059
13 13:00 55.1 47.3 75 SW 9 G 12 30.08 1018.5 0.00 394 0.0 0.042
13 12:00 51.8 44.1 75 WSW 3 G 12 30.09 1019.0 0.00 323 0.0 0.032
13 11:00 56.0 48.2 75 SSW 9 G 11 30.09 1019.1 0.00 608 0.0 0.021
13 10:00 56.3 46.7 70 SW 6 G 9 30.10 1019.2 0.00 53 0.0 0.018
13 09:00 55.3 40.3 57 WNW 7 G 12 30.11 1019.6 0.00 44 0.0 0.016
13 08:00 53.4 40.3 53.4 46.6 61 W 2 G 8 30.10 1019.5 0.00 44 0.0 0.013
13 07:00 50.3 39.8 67 WNW 8 G 10 30.10 1019.2 0.00 33 0.0 0.011
13 06:00 47.2 39.0 73 WNW 8 G 11 30.09 1019.1 0.00 25 0.0 0.009
13 05:00 46.9 38.7 73 WNW 8 G 9 30.08 1018.7 0.00 0 0.0 0.008
13 04:00 47.4 39.2 73 NW 8 G 9 30.08 1018.7 0.00 0 0.0 0.006
13 03:00 48.0 39.8 73 NW 6 G 10 30.08 1018.8 0.00 0 0.0 0.004
13 02:00 49.0 40.4 54.5 48.9 72 WNW 6 G 9 30.09 1018.9 0.00 0 0.0 0.002
13 01:00 49.2 40.2 71 WNW 5 G 9 30.09 1019.1 0.00 0 0.0 0.000
13 00:00 49.9 40.9 71 WNW 5 G 8 30.10 1019.2 0.00 0 0.0 0.137
12 23:00 49.4 40.4 71 W 5 G 7 30.09 1019.1 0.00 0 0.0 0.136
12 22:00 51.2 41.4 69 WNW 3 G 5 30.08 1018.8 0.00 0 0.0 0.135
12 21:00 52.4 41.8 67 NW 4 G 7 30.08 1018.5 0.00 0 0.0 0.134
12 20:00 54.5 42.2 62.6 53.3 63 NW 5 G 10 30.06 1018.0 0.00 0 0.0 0.132
12 19:00 57.1 42.9 59 NW 8 G 15 30.03 1017.1 0.00 62 0.0 0.125
12 18:00 57.1 45.0 64 W 7 G 11 30.01 1016.4 0.00 459 0.0 0.118
12 17:00 53.3 43.8 70 WSW 4 G 11 30.02 1016.5 0.00 116 0.0 0.111
12 16:00 59.7 43.0 54 WSW 3 G 9 29.98 1015.3 0.00 295 0.0 0.101
12 15:00 62.5 40.3 44 NW 9 G 19 29.97 1014.9 0.00 338 0.0 0.087
12 14:00 59.9 39.6 62.0 46.9 47 NW 9 G 13 29.96 1014.6 0.00 260 0.0 0.078
12 13:00 61.0 38.9 44 NW 8 G 17 29.95 1014.2 0.00 102 0.0 0.063
12 12:00 61.4 38.7 43 NW 11 G 25 29.94 1013.9 0.00 1083 1.3 0.038
12 11:00 58.9 41.3 52 NW 10 G 21 29.93 1013.6 0.00 951 0.8 0.024
12 10:00 55.8 40.8 57 NW 9 G 19 29.92 1013.2 0.00 46 0.0 0.020
12 09:00 51.8 42.0 69 NNW 10 G 21 29.91 1013.0 0.00 40 0.0 0.017
12 08:00 46.9 39.7 47.7 44.7 76 W 12 G 17 29.90 1012.6 0.00 46 0.0 0.015
12 07:00 45.0 38.2 77 W 11 G 15 29.89 1012.1 0.00 130 0.0 0.012
12 06:00 45.2 36.7 72 W 9 G 14 29.87 1011.5 0.00 40 0.0 0.010
12 05:00 45.0 36.5 72 W 9 G 13 29.85 1011.0 0.00 0 0.0 0.009
12 04:00 45.7 36.8 71 W 7 G 14 29.84 1010.7 0.00 0 0.0 0.007
12 03:00 46.4 37.2 70 W 9 G 12 29.85 1010.8 0.00 0 0.0 0.005
12 02:00 47.7 37.3 52.5 47.6 67 W 10 G 18 29.86 1011.1 0.00 0 0.0 0.003
12 01:00 48.9 37.3 64 W 11 G 16 29.85 1010.8 0.00 0 0.0 0.000
12 00:00 50.6 37.7 61 WNW 8 G 17 29.86 1011.1 0.01 0 0.0 0.105
11 23:00 51.3 38.3 61 WNW 10 G 16 29.85 1011.0 0.01 0 0.0 0.103
11 22:00 50.7 40.1 67 W 4 G 8 29.87 1011.5 0.01 0 0.0 0.101
11 21:00 51.2 41.0 68 NW 3 G 6 29.87 1011.5 0.01 0 0.0 0.100
11 20:00 52.5 39.9 58.9 51.5 62 W 3 G 8 29.84 1010.4 0.01 0.01 0 0.0 0.098
11 19:00 55.8 39.4 54 NW 11 G 17 29.83 1010.0 0.01 56 0.0 0.092
11 18:00 55.6 39.2 54 W 11 G 17 29.81 1009.5 0.01 90 0.0 0.087
11 17:00 56.5 41.0 56 WNW 6 G 13 29.79 1008.9 0.01 0.01 178 0.0 0.079
11 16:00 56.7 45.1 65 SW 5 G 12 29.78 1008.6 0.01 884 0.0 0.069
11 15:00 55.1 44.3 67 W 4 G 7 29.79 1008.8 0.01 0.01 508 0.0 0.063
11 14:00 54.2 46.5 58.3 51.4 75 SSW 10 G 18 29.79 1008.9 0.00 290 0.0 0.047
11 13:00 55.5 45.5 69 W 12 G 18 29.80 1009.1 0.00 327 0.0 0.040
11 12:00 52.5 46.2 79 SW 8 G 14 29.81 1009.3 0.00 216 0.0 0.025
11 11:00 53.2 46.5 78 SSW 9 G 11 29.81 1009.5 0.00 522 0.0 0.016
11 10:00 53.5 46.5 77 S 6 G 10 29.81 1009.6 0.00 207 0.0 0.011
11 09:00 55.1 45.5 70 NW 8 G 12 29.81 1009.5 0.00 209 0.0 0.008
11 08:00 51.7 46.4 51.7 47.7 82 WNW 8 G 14 29.81 1009.5 0.00 51 0.0 0.006
11 07:00 49.2 45.5 87 WNW 8 G 14 29.82 1009.8 0.00 100 0.0 0.005
11 06:00 48.5 45.4 89 WNW 6 G 13 29.82 1009.8 0.00 11 0.0 0.004
11 05:00 48.0 44.3 87 W 3 G 6 29.81 1009.6 0.00 0 0.0 0.003
11 04:00 48.2 44.2 86 SSW 4 G 6 29.81 1009.5 0.00 0 0.0 0.002
11 03:00 48.5 44.2 85 S 5 G 6 29.82 1009.8 0.00 0 0.0 0.001
11 02:00 48.2 43.9 48.7 47.9 85 S 3 G 5 29.84 1010.4 0.00 0 0.0 0.001
11 01:00 48.1 43.8 85 SSW 2 G 4 29.85 1010.8 0.00 0 0.0 0.000
11 00:00 48.5 44.2 85 SW 2 G 5 29.86 1011.1 0.00 0 0.0 0.150
10 23:00 48.2 44.2 86 WSW 5 G 9 29.87 1011.5 0.00 0 0.0 0.149
10 22:00 48.3 44.3 86 SW 6 G 10 29.88 1012.0 0.00 0 0.0 0.148
10 21:00 48.1 43.8 85 SW 6 G 9 29.87 1011.4 0.00 0 0.0 0.147
10 20:00 48.7 44.4 55.4 48.7 85 WSW 5 G 10 29.85 1010.8 0.00 0 0.0 0.146

Data generated by WxSolution Version 1.9.1.8, Build 2020.02.16.